Time;durP1;ratioP1;P1;durP2;ratioP2;P2;SDS_P1;SDS_P2;PMS_P1;PMS_P2;Temp;Humidity;BMP_temperature;BMP_pressure;BME280_temperature;BME280_humidity;BME280_pressure;Samples;Min_cycle;Max_cycle;Signal;HPM_P1;HPM_P2
2022/02/13 00:02:05;;;;;;;;;;;;;;;;;;4993190;28;19936;-68
2022/02/13 00:04:32;;;;;;;;;;;;;;;;;;4990179;28;19992;-68
2022/02/13 00:06:59;;;;;;;;;;;;;;;;;;4983348;28;19932;-67
2022/02/13 00:09:28;;;;;;;;;;;;;;;;;;4984793;28;19988;-68
2022/02/13 00:11:55;;;;;;;;;;;;;;;;;;5006276;28;20375;-67
2022/02/13 00:14:22;;;;;;;;;;;;;;;;;;4996583;28;19976;-67
2022/02/13 00:16:49;;;;;;;;;;;;;;;;;;4988787;28;20009;-67
2022/02/13 00:19:16;;;;;;;;;;;;;;;;;;4982570;28;19987;-67
2022/02/13 00:21:43;;;;;;;;;;;;;;;;;;4980050;28;19926;-66
2022/02/13 00:24:11;;;;;;;;;;;;;;;;;;4992498;28;19948;-66
2022/02/13 00:26:38;;;;;;;;;;;;;;;;;;4986230;28;19934;-68
2022/02/13 00:29:05;;;;;;;;;;;;;;;;;;4988940;28;19971;-66
2022/02/13 00:31:32;;;;;;;;;;;;;;;;;;4989466;28;19925;-68
2022/02/13 00:33:59;;;;;;;;;;;;;;;;;;5020329;28;19937;-67
2022/02/13 00:36:26;;;;;;;;;;;;;;;;;;4988050;28;19934;-68
2022/02/13 00:38:53;;;;;;;;;;;;;;;;;;4986605;28;19926;-67
2022/02/13 00:41:20;;;;;;;;;;;;;;;;;;4984424;28;20384;-67
2022/02/13 00:43:47;;;;;;;;;;;;;;;;;;4988342;28;20660;-67
2022/02/13 00:46:14;;;;;;;;;;;;;;;;;;4994542;28;19930;-68
2022/02/13 00:48:42;;;;;;;;;;;;;;;;;;4988950;28;19940;-67
2022/02/13 00:51:09;;;;;;;;;;;;;;;;;;4997732;28;19936;-67
2022/02/13 00:53:36;;;;;;;;;;;;;;;;;;5001972;28;20478;-67
2022/02/13 00:56:03;;;;;;;;;;;;;;;;;;5015966;28;19979;-68
2022/02/13 00:58:30;;;;;;;;;;;;;;;;;;4987496;28;19941;-67
2022/02/13 01:00:57;;;;;;;;;;;;;;;;;;4991451;28;19936;-67
2022/02/13 01:03:24;;;;;;;;;;;;;;;;;;4993057;28;20020;-67
2022/02/13 01:05:51;;;;;;;;;;;;;;;;;;4988408;28;19933;-67
2022/02/13 01:08:18;;;;;;;;;;;;;;;;;;4986167;28;19926;-67
2022/02/13 01:10:46;;;;;;;;;;;;;;;;;;4996336;28;19926;-67
2022/02/13 01:13:13;;;;;;;;;;;;;;;;;;5008086;28;19926;-66
2022/02/13 01:15:41;;;;;;;;;;;;;;;;;;4987361;28;19933;-67
2022/02/13 01:18:09;;;;;;;;;;;;;;;;;;4989095;28;19925;-66
2022/02/13 01:20:36;;;;;;;;;;;;;;;;;;4984224;28;20012;-67
2022/02/13 01:23:03;;;;;;;;;;;;;;;;;;4993761;28;19933;-67
2022/02/13 01:25:30;;;;;;;;;;;;;;;;;;4988634;28;19948;-68
2022/02/13 01:28:00;;;;;;;;;;;;;;;;;;4983707;28;19999;-66
2022/02/13 01:30:27;;;;;;;;;;;;;;;;;;4984664;28;19964;-67
2022/02/13 01:32:54;;;;;;;;;;;;;;;;;;4990165;28;20409;-67
2022/02/13 01:35:21;;;;;;;;;;;;;;;;;;4987727;28;20429;-67
2022/02/13 01:37:48;;;;;;;;;;;;;;;;;;4979343;28;19936;-67
2022/02/13 01:40:16;;;;;;;;;;;;;;;;;;5006037;28;19929;-67
2022/02/13 01:42:43;;;;;;;;;;;;;;;;;;4991643;28;20288;-66
2022/02/13 01:45:10;;;;;;;;;;;;;;;;;;4991276;28;19930;-67
2022/02/13 01:47:37;;;;;;;;;;;;;;;;;;4988263;28;20026;-67
2022/02/13 01:50:04;;;;;;;;;;;;;;;;;;4989196;28;19998;-68
2022/02/13 01:52:31;;;;;;;;;;;;;;;;;;5017678;28;19984;-68
2022/02/13 01:54:59;;;;;;;;;;;;;;;;;;4981822;28;19937;-68
2022/02/13 01:57:26;;;;;;;;;;;;;;;;;;4989450;28;20345;-67
2022/02/13 01:59:54;;;;;;;;;;;;;;;;;;5007033;28;20014;-67
2022/02/13 02:02:21;;;;;;;;;;;;;;;;;;4992033;28;19926;-68
2022/02/13 02:04:50;;;;;;;;;;;;;;;;;;4978717;28;19941;-68
2022/02/13 02:07:17;;;;;;;;;;;;;;;;;;4990080;28;20019;-68
2022/02/13 02:09:44;;;;;;;;;;;;;;;;;;4980121;28;19932;-67
2022/02/13 02:12:11;;;;;;;;;;;;;;;;;;4998289;28;19936;-68
2022/02/13 02:14:38;;;;;;;;;;;;;;;;;;5006219;28;19932;-67
2022/02/13 02:17:05;;;;;;;;;;;;;;;;;;5021994;28;19930;-67
2022/02/13 02:19:32;;;;;;;;;;;;;;;;;;4984516;28;19926;-67
2022/02/13 02:21:59;;;;;;;;;;;;;;;;;;4979946;28;19934;-67
2022/02/13 02:24:27;;;;;;;;;;;;;;;;;;4987954;28;20451;-67
2022/02/13 02:26:54;;;;;;;;;;;;;;;;;;5015773;28;20123;-66
2022/02/13 02:29:21;;;;;;;;;;;;;;;;;;4982006;28;19926;-67
2022/02/13 02:31:48;;;;;;;;;;;;;;;;;;4988850;28;19926;-67
2022/02/13 02:34:15;;;;;;;;;;;;;;;;;;5006285;28;20032;-67
2022/02/13 02:36:42;;;;;;;;;;;;;;;;;;5005014;28;19945;-67
2022/02/13 02:39:09;;;;;;;;;;;;;;;;;;4989389;28;20391;-68
2022/02/13 02:41:36;;;;;;;;;;;;;;;;;;4990999;28;20509;-68
2022/02/13 02:44:03;;;;;;;;;;;;;;;;;;4986497;28;19969;-68
2022/02/13 02:46:30;;;;;;;;;;;;;;;;;;5009579;28;19924;-68
2022/02/13 02:48:57;;;;;;;;;;;;;;;;;;4982225;28;19969;-68
2022/02/13 02:51:25;;;;;;;;;;;;;;;;;;4987813;28;20010;-68
2022/02/13 02:53:52;;;;;;;;;;;;;;;;;;4989960;28;19929;-68
2022/02/13 02:56:19;;;;;;;;;;;;;;;;;;4991709;28;20284;-68
2022/02/13 02:58:46;;;;;;;;;;;;;;;;;;4986807;28;19926;-67
2022/02/13 03:01:13;;;;;;;;;;;;;;;;;;4988925;28;19926;-68
2022/02/13 03:03:40;;;;;;;;;;;;;;;;;;5024362;28;20367;-68
2022/02/13 03:06:08;;;;;;;;;;;;;;;;;;4985789;28;20434;-68
2022/02/13 03:08:39;;;;;;;;;;;;;;;;;;4982220;28;19930;-68
2022/02/13 03:11:06;;;;;;;;;;;;;;;;;;5005955;28;19931;-68
2022/02/13 03:13:33;;;;;;;;;;;;;;;;;;5000704;28;20394;-68
2022/02/13 03:16:00;;;;;;;;;;;;;;;;;;5012840;28;19926;-68
2022/02/13 03:18:30;;;;;;;;;;;;;;;;;;4986122;28;19926;-68
2022/02/13 03:20:57;;;;;;;;;;;;;;;;;;4988416;28;20020;-67
2022/02/13 03:23:24;;;;;;;;;;;;;;;;;;4986736;28;20009;-68
2022/02/13 03:28:27;;;;;;;;;;;;;;;;;;5078317;22;19947;-70
2022/02/13 03:30:55;;;;;;;;;;;;;;;;;;5067609;28;19939;-70
2022/02/13 03:33:22;;;;;;;;;;;;;;;;;;5074647;28;19960;-69
2022/02/13 03:35:49;;;;;;;;;;;;;;;;;;5070771;28;19936;-68
2022/02/13 03:38:16;;;;;;;;;;;;;;;;;;5072185;28;19932;-70
2022/02/13 03:40:43;;;;;;;;;;;;;;;;;;5066079;28;19983;-69
2022/02/13 03:43:10;;;;;;;;;;;;;;;;;;5061776;28;19925;-68
2022/02/13 03:45:37;;;;;;;;;;;;;;;;;;5071401;28;19925;-69
2022/02/13 03:48:04;;;;;;;;;;;;;;;;;;5070823;28;19924;-69
2022/02/13 03:50:33;;;;;;;;;;;;;;;;;;5071434;28;20063;-69
2022/02/13 03:53:00;;;;;;;;;;;;;;;;;;5069525;28;19931;-69
2022/02/13 03:55:27;;;;;;;;;;;;;;;;;;5066817;28;19998;-69
2022/02/13 03:57:54;;;;;;;;;;;;;;;;;;5062323;28;19925;-70
2022/02/13 04:00:21;;;;;;;;;;;;;;;;;;5069505;28;19925;-70
2022/02/13 04:02:48;;;;;;;;;;;;;;;;;;5067376;28;19931;-69
2022/02/13 04:05:15;;;;;;;;;;;;;;;;;;5061399;28;19933;-70
2022/02/13 04:07:42;;;;;;;;;;;;;;;;;;5068674;28;19924;-69
2022/02/13 04:10:09;;;;;;;;;;;;;;;;;;5069857;28;19931;-70
2022/02/13 04:12:36;;;;;;;;;;;;;;;;;;5067804;28;19971;-70
2022/02/13 04:15:03;;;;;;;;;;;;;;;;;;5069483;28;20314;-70
2022/02/13 04:17:30;;;;;;;;;;;;;;;;;;5068000;28;19928;-70
2022/02/13 04:19:56;;;;;;;;;;;;;;;;;;5068307;28;19924;-69
2022/02/13 04:22:23;;;;;;;;;;;;;;;;;;5070522;28;19943;-70
2022/02/13 04:24:50;;;;;;;;;;;;;;;;;;5071795;28;19925;-70
2022/02/13 04:27:17;;;;;;;;;;;;;;;;;;5060340;28;19932;-69
2022/02/13 04:29:45;;;;;;;;;;;;;;;;;;5067882;28;19928;-70
2022/02/13 04:32:12;;;;;;;;;;;;;;;;;;5065845;28;19925;-70
2022/02/13 04:34:40;;;;;;;;;;;;;;;;;;5061125;28;19939;-70
2022/02/13 04:37:07;;;;;;;;;;;;;;;;;;5064048;28;19924;-70
2022/02/13 04:39:34;;;;;;;;;;;;;;;;;;5062993;28;19924;-71
2022/02/13 04:42:01;;;;;;;;;;;;;;;;;;5063632;28;19929;-71
2022/02/13 04:44:28;;;;;;;;;;;;;;;;;;5070242;28;19939;-70
2022/02/13 04:46:55;;;;;;;;;;;;;;;;;;5068923;28;19930;-71
2022/02/13 04:49:22;;;;;;;;;;;;;;;;;;5067274;28;19932;-70
2022/02/13 04:51:49;;;;;;;;;;;;;;;;;;5067029;28;20630;-69
2022/02/13 04:54:16;;;;;;;;;;;;;;;;;;5066159;28;19924;-69
2022/02/13 04:56:43;;;;;;;;;;;;;;;;;;5061855;28;19925;-69
2022/02/13 04:59:13;;;;;;;;;;;;;;;;;;5064989;28;19928;-68
2022/02/13 05:01:40;;;;;;;;;;;;;;;;;;5064422;28;19925;-69
2022/02/13 05:04:07;;;;;;;;;;;;;;;;;;5066009;28;19931;-70
2022/02/13 05:06:35;;;;;;;;;;;;;;;;;;5065370;28;19931;-70
2022/02/13 05:09:01;;;;;;;;;;;;;;;;;;5066444;28;19932;-70
2022/02/13 05:11:28;;;;;;;;;;;;;;;;;;5068177;28;19932;-70
2022/02/13 05:13:55;;;;;;;;;;;;;;;;;;5056542;28;19929;-70
2022/02/13 05:16:22;;;;;;;;;;;;;;;;;;5067014;28;19924;-70
2022/02/13 05:18:49;;;;;;;;;;;;;;;;;;5068286;28;20302;-69
2022/02/13 05:21:16;;;;;;;;;;;;;;;;;;5062540;28;20012;-70
2022/02/13 05:23:43;;;;;;;;;;;;;;;;;;5067465;28;19971;-70
2022/02/13 05:26:10;;;;;;;;;;;;;;;;;;5068087;28;19948;-69
2022/02/13 05:28:37;;;;;;;;;;;;;;;;;;5069041;28;20433;-69
2022/02/13 05:31:04;;;;;;;;;;;;;;;;;;5067346;28;19931;-69
2022/02/13 05:33:31;;;;;;;;;;;;;;;;;;5065811;28;19932;-69
2022/02/13 05:35:58;;;;;;;;;;;;;;;;;;5062313;28;19928;-70
2022/02/13 05:38:25;;;;;;;;;;;;;;;;;;5060549;28;19932;-70
2022/02/13 05:40:52;;;;;;;;;;;;;;;;;;5062219;28;19924;-69
2022/02/13 05:43:19;;;;;;;;;;;;;;;;;;5066036;28;19924;-69
2022/02/13 05:45:46;;;;;;;;;;;;;;;;;;5069624;28;20015;-70
2022/02/13 05:48:14;;;;;;;;;;;;;;;;;;5062896;28;19925;-69
2022/02/13 05:50:41;;;;;;;;;;;;;;;;;;5066691;28;20839;-70
2022/02/13 05:53:08;;;;;;;;;;;;;;;;;;5068381;28;19985;-69
2022/02/13 05:55:35;;;;;;;;;;;;;;;;;;5056540;28;19951;-69
2022/02/13 05:58:02;;;;;;;;;;;;;;;;;;5063157;28;19939;-69
2022/02/13 06:00:29;;;;;;;;;;;;;;;;;;5068613;28;20007;-69
2022/02/13 06:02:57;;;;;;;;;;;;;;;;;;5066267;28;20007;-70
2022/02/13 06:05:24;;;;;;;;;;;;;;;;;;5069334;28;19977;-70
2022/02/13 06:07:51;;;;;;;;;;;;;;;;;;5068939;28;19928;-69
2022/02/13 06:10:18;;;;;;;;;;;;;;;;;;5067280;28;19928;-70
2022/02/13 06:12:45;;;;;;;;;;;;;;;;;;5066211;28;19929;-69
2022/02/13 06:15:12;;;;;;;;;;;;;;;;;;5067793;28;19925;-70
2022/02/13 06:17:39;;;;;;;;;;;;;;;;;;5073262;28;19951;-69
2022/02/13 06:20:06;;;;;;;;;;;;;;;;;;5070464;28;19936;-70
2022/02/13 06:22:33;;;;;;;;;;;;;;;;;;5072057;28;19924;-69
2022/02/13 06:25:01;;;;;;;;;;;;;;;;;;5071341;28;19967;-69
2022/02/13 06:27:28;;;;;;;;;;;;;;;;;;5065897;28;19951;-70
2022/02/13 06:29:55;;;;;;;;;;;;;;;;;;5070708;28;19925;-68
2022/02/13 06:32:22;;;;;;;;;;;;;;;;;;5068657;28;19951;-71
2022/02/13 06:34:49;;;;;;;;;;;;;;;;;;5065609;28;20362;-70
2022/02/13 06:37:16;;;;;;;;;;;;;;;;;;5070336;28;20019;-70
2022/02/13 06:39:43;;;;;;;;;;;;;;;;;;5064974;28;19931;-71
2022/02/13 06:42:10;;;;;;;;;;;;;;;;;;5066782;28;19925;-69
2022/02/13 06:44:37;;;;;;;;;;;;;;;;;;5070779;28;19939;-71
2022/02/13 06:47:04;;;;;;;;;;;;;;;;;;5069805;28;19963;-68
2022/02/13 06:49:32;;;;;;;;;;;;;;;;;;5066168;28;19932;-70
2022/02/13 06:51:59;;;;;;;;;;;;;;;;;;5070520;28;19928;-70
2022/02/13 06:54:26;;;;;;;;;;;;;;;;;;5069678;28;20432;-70
2022/02/13 06:56:53;;;;;;;;;;;;;;;;;;5075060;28;20019;-70
2022/02/13 06:59:22;;;;;;;;;;;;;;;;;;5072871;28;19925;-69
2022/02/13 07:01:49;;;;;;;;;;;;;;;;;;5068763;28;19932;-70
2022/02/13 07:04:16;;;;;;;;;;;;;;;;;;5071629;28;19956;-69
2022/02/13 07:06:43;;;;;;;;;;;;;;;;;;5070177;28;19975;-70
2022/02/13 07:09:10;;;;;;;;;;;;;;;;;;5067169;28;19931;-69
2022/02/13 07:11:37;;;;;;;;;;;;;;;;;;5069054;28;19944;-70
2022/02/13 07:14:04;;;;;;;;;;;;;;;;;;5067542;28;20391;-69
2022/02/13 07:16:32;;;;;;;;;;;;;;;;;;5069215;28;19979;-69
2022/02/13 07:18:59;;;;;;;;;;;;;;;;;;5069274;28;20309;-69
2022/02/13 07:21:26;;;;;;;;;;;;;;;;;;5065224;28;19932;-70
2022/02/13 07:23:53;;;;;;;;;;;;;;;;;;5071731;28;19977;-70
2022/02/13 07:26:20;;;;;;;;;;;;;;;;;;5066797;28;20424;-69
2022/02/13 07:28:59;;;;;;;;;;;;;;;;;;5062458;28;19931;-69
2022/02/13 07:31:26;;;;;;;;;;;;;;;;;;5060499;28;19929;-70
2022/02/13 07:33:54;;;;;;;;;;;;;;;;;;5060215;28;19924;-69
2022/02/13 07:36:21;;;;;;;;;;;;;;;;;;5066038;28;19971;-68
2022/02/13 07:38:51;;;;;;;;;;;;;;;;;;5059445;28;19960;-67
2022/02/13 07:41:18;;;;;;;;;;;;;;;;;;5062494;28;19971;-68
2022/02/13 07:43:45;;;;;;;;;;;;;;;;;;5064255;28;19939;-69
2022/02/13 07:46:12;;;;;;;;;;;;;;;;;;5064353;28;20417;-70
2022/02/13 07:48:39;;;;;;;;;;;;;;;;;;5063403;28;20354;-69
2022/02/13 07:51:06;;;;;;;;;;;;;;;;;;5068107;28;20370;-68
2022/02/13 07:53:33;;;;;;;;;;;;;;;;;;5069842;28;19925;-68
2022/02/13 07:56:00;;;;;;;;;;;;;;;;;;5062130;28;20402;-70
2022/02/13 07:58:32;;;;;;;;;;;;;;;;;;5057100;28;19932;-68
2022/02/13 08:00:59;;;;;;;;;;;;;;;;;;5065068;28;20007;-68
2022/02/13 08:03:26;;;;;;;;;;;;;;;;;;5069422;28;20457;-69
2022/02/13 08:05:52;;;;;;;;;;;;;;;;;;5062193;28;19925;-71
2022/02/13 08:08:20;;;;;;;;;;;;;;;;;;5061902;28;19931;-69
2022/02/13 08:10:47;;;;;;;;;;;;;;;;;;5067061;28;20021;-69
2022/02/13 08:13:14;;;;;;;;;;;;;;;;;;5066114;28;19925;-70
2022/02/13 08:15:41;;;;;;;;;;;;;;;;;;5067811;28;19947;-69
2022/02/13 08:18:08;;;;;;;;;;;;;;;;;;5066406;28;19925;-70
2022/02/13 08:20:35;;;;;;;;;;;;;;;;;;5061966;28;20289;-69
2022/02/13 08:23:02;;;;;;;;;;;;;;;;;;5065950;28;19931;-70
2022/02/13 08:25:29;;;;;;;;;;;;;;;;;;5068365;28;20022;-70
2022/02/13 08:27:56;;;;;;;;;;;;;;;;;;5064254;28;19925;-69
2022/02/13 08:30:22;;;;;;;;;;;;;;;;;;5056288;28;19928;-69
2022/02/13 08:32:49;;;;;;;;;;;;;;;;;;5059840;28;19944;-70
2022/02/13 08:35:16;;;;;;;;;;;;;;;;;;5066770;28;20409;-70
2022/02/13 08:37:43;;;;;;;;;;;;;;;;;;5059902;28;19931;-70
2022/02/13 08:40:10;;;;;;;;;;;;;;;;;;5059836;28;19948;-69
2022/02/13 08:42:37;;;;;;;;;;;;;;;;;;5060537;28;19939;-69
2022/02/13 08:45:04;;;;;;;;;;;;;;;;;;5061391;28;19931;-70
2022/02/13 08:47:31;;;;;;;;;;;;;;;;;;5063887;28;19931;-70
2022/02/13 08:49:58;;;;;;;;;;;;;;;;;;5063168;28;19925;-69
2022/02/13 08:52:25;;;;;;;;;;;;;;;;;;5061845;28;19932;-69
2022/02/13 08:54:52;;;;;;;;;;;;;;;;;;5060388;28;19936;-69
2022/02/13 08:57:21;;;;;;;;;;;;;;;;;;5055859;28;21561;-69
2022/02/13 08:59:48;;;;;;;;;;;;;;;;;;5060428;28;19932;-70
2022/02/13 09:02:14;;;;;;;;;;;;;;;;;;5060826;28;19924;-69
2022/02/13 09:04:41;;;;;;;;;;;;;;;;;;5066317;28;20409;-69
2022/02/13 09:07:10;;;;;;;;;;;;;;;;;;5061522;28;20301;-69
2022/02/13 09:09:36;;;;;;;;;;;;;;;;;;5059260;28;19928;-70
2022/02/13 09:12:03;;;;;;;;;;;;;;;;;;5061276;28;19924;-70
2022/02/13 09:14:31;;;;;;;;;;;;;;;;;;5065870;28;19936;-70
2022/02/13 09:16:58;;;;;;;;;;;;;;;;;;5061127;28;19951;-70
2022/02/13 09:19:25;;;;;;;;;;;;;;;;;;5055532;28;19925;-70
2022/02/13 09:21:52;;;;;;;;;;;;;;;;;;5067908;28;19924;-70
2022/02/13 09:24:19;;;;;;;;;;;;;;;;;;5067278;28;20340;-69
2022/02/13 09:26:46;;;;;;;;;;;;;;;;;;5078301;22;19924;-66
2022/02/13 09:29:13;;;;;;;;;;;;;;;;;;5064116;28;19925;-63
2022/02/13 09:31:40;;;;;;;;;;;;;;;;;;5062426;28;20313;-63
2022/02/13 09:34:07;;;;;;;;;;;;;;;;;;5065221;28;19925;-64
2022/02/13 09:36:34;;;;;;;;;;;;;;;;;;5060220;28;19924;-64
2022/02/13 09:39:01;;;;;;;;;;;;;;;;;;5069786;28;19999;-65
2022/02/13 09:41:27;;;;;;;;;;;;;;;;;;5072506;28;19951;-65
2022/02/13 09:43:56;;;;;;;;;;;;;;;;;;5072990;28;19932;-66
2022/02/13 09:46:23;;;;;;;;;;;;;;;;;;5072386;28;19928;-65
2022/02/13 09:48:50;;;;;;;;;;;;;;;;;;5067581;28;19929;-65
2022/02/13 09:51:17;;;;;;;;;;;;;;;;;;5072385;28;19928;-65
2022/02/13 09:53:44;;;;;;;;;;;;;;;;;;5072483;28;19932;-65
2022/02/13 09:56:11;;;;;;;;;;;;;;;;;;5073469;28;19944;-64
2022/02/13 09:58:38;;;;;;;;;;;;;;;;;;5070327;28;19924;-64
2022/02/13 10:01:06;;;;;;;;;;;;;;;;;;5072882;28;19924;-65
2022/02/13 10:03:33;;;;;;;;;;;;;;;;;;5071238;28;19932;-64
2022/02/13 10:06:00;;;;;;;;;;;;;;;;;;5073184;28;19924;-65
2022/02/13 10:08:27;;;;;;;;;;;;;;;;;;5070474;28;19928;-64
2022/02/13 10:10:54;;;;;;;;;;;;;;;;;;5067408;28;19970;-66
2022/02/13 10:13:21;;;;;;;;;;;;;;;;;;5069533;28;20336;-64
2022/02/13 10:15:48;;;;;;;;;;;;;;;;;;5071394;28;19978;-65
2022/02/13 10:18:15;;;;;;;;;;;;;;;;;;5070860;28;19943;-65
2022/02/13 10:20:42;;;;;;;;;;;;;;;;;;5071826;28;20302;-64
2022/02/13 10:23:09;;;;;;;;;;;;;;;;;;5072545;28;20074;-65
2022/02/13 10:25:36;;;;;;;;;;;;;;;;;;5071720;28;19924;-64
2022/02/13 10:28:03;;;;;;;;;;;;;;;;;;5071480;28;19939;-64
2022/02/13 10:30:30;;;;;;;;;;;;;;;;;;5063261;28;19924;-64
2022/02/13 10:33:00;;;;;;;;;;;;;;;;;;5066022;28;20389;-65
2022/02/13 10:35:29;;;;;;;;;;;;;;;;;;5072879;28;20007;-64
2022/02/13 10:37:56;;;;;;;;;;;;;;;;;;5067530;28;20374;-64
2022/02/13 10:40:23;;;;;;;;;;;;;;;;;;5061696;28;19932;-63
2022/02/13 10:42:50;;;;;;;;;;;;;;;;;;5070411;28;20148;-64
2022/02/13 10:45:18;;;;;;;;;;;;;;;;;;5067249;28;20161;-65
2022/02/13 10:47:45;;;;;;;;;;;;;;;;;;5065428;28;20366;-64
2022/02/13 10:50:12;;;;;;;;;;;;;;;;;;5061607;28;19932;-64
2022/02/13 10:52:39;;;;;;;;;;;;;;;;;;5064342;28;19931;-64
2022/02/13 10:55:06;;;;;;;;;;;;;;;;;;5065674;28;20374;-65
2022/02/13 10:57:33;;;;;;;;;;;;;;;;;;5066087;28;20309;-64
2022/02/13 11:00:00;;;;;;;;;;;;;;;;;;5066762;28;19943;-64
2022/02/13 11:02:27;;;;;;;;;;;;;;;;;;5067169;28;19928;-63
2022/02/13 11:04:54;;;;;;;;;;;;;;;;;;5066743;28;19928;-63
2022/02/13 11:07:21;;;;;;;;;;;;;;;;;;5064591;28;19925;-62
2022/02/13 11:09:48;;;;;;;;;;;;;;;;;;5066890;28;20493;-63
2022/02/13 11:12:15;;;;;;;;;;;;;;;;;;5066651;28;19924;-64
2022/02/13 11:14:43;;;;;;;;;;;;;;;;;;5066363;28;19924;-64
2022/02/13 11:17:11;;;;;;;;;;;;;;;;;;5067009;28;19925;-65
2022/02/13 11:19:39;;;;;;;;;;;;;;;;;;5064000;28;19928;-65
2022/02/13 11:22:06;;;;;;;;;;;;;;;;;;5067965;28;20374;-65
2022/02/13 11:24:36;;;;;;;;;;;;;;;;;;5068490;28;19928;-64
2022/02/13 11:27:03;;;;;;;;;;;;;;;;;;5064656;28;20115;-64
2022/02/13 11:29:29;;;;;;;;;;;;;;;;;;5065864;28;19924;-64
2022/02/13 11:31:57;;;;;;;;;;;;;;;;;;5066563;28;19933;-66
2022/02/13 11:34:24;;;;;;;;;;;;;;;;;;5062160;28;20302;-66
2022/02/13 11:36:51;;;;;;;;;;;;;;;;;;5067269;28;19947;-66
2022/02/13 11:39:18;;;;;;;;;;;;;;;;;;5065337;28;19932;-65
2022/02/13 11:41:45;;;;;;;;;;;;;;;;;;5068629;28;19925;-63
2022/02/13 11:44:12;;;;;;;;;;;;;;;;;;5067984;28;20019;-65
2022/02/13 11:46:41;;;;;;;;;;;;;;;;;;5063338;28;19924;-64
2022/02/13 11:49:11;;;;;;;;;;;;;;;;;;5065711;28;20297;-65
2022/02/13 11:51:38;;;;;;;;;;;;;;;;;;5065857;28;20007;-64
2022/02/13 11:54:04;;;;;;;;;;;;;;;;;;5065648;28;19924;-64
2022/02/13 11:56:32;;;;;;;;;;;;;;;;;;5064922;28;19964;-65
2022/02/13 11:58:59;;;;;;;;;;;;;;;;;;5064278;28;19928;-64
2022/02/13 12:01:26;;;;;;;;;;;;;;;;;;5066214;28;20392;-65
2022/02/13 12:03:53;;;;;;;;;;;;;;;;;;5062616;28;19925;-65
2022/02/13 12:06:20;;;;;;;;;;;;;;;;;;5067531;28;19924;-65
2022/02/13 12:08:47;;;;;;;;;;;;;;;;;;5067307;28;19937;-64
2022/02/13 12:11:16;;;;;;;;;;;;;;;;;;5066960;28;19934;-65
2022/02/13 12:13:44;;;;;;;;;;;;;;;;;;5065583;28;19925;-64
2022/02/13 12:16:11;;;;;;;;;;;;;;;;;;5065773;28;19950;-64
2022/02/13 12:18:38;;;;;;;;;;;;;;;;;;5064219;28;20174;-65
2022/02/13 12:21:05;;;;;;;;;;;;;;;;;;5059334;28;19925;-64
2022/02/13 12:23:32;;;;;;;;;;;;;;;;;;5064169;28;20186;-63
2022/02/13 12:25:59;;;;;;;;;;;;;;;;;;5065579;28;20023;-64
2022/02/13 12:28:26;;;;;;;;;;;;;;;;;;5063994;28;19932;-64
2022/02/13 12:31:00;;;;;;;;;;;;;;;;;;5067786;28;20404;-65
2022/02/13 12:33:27;;;;;;;;;;;;;;;;;;5068217;28;19930;-64
2022/02/13 12:35:56;;;;;;;;;;;;;;;;;;5069252;28;19931;-64
2022/02/13 12:38:26;;;;;;;;;;;;;;;;;;5067194;28;19925;-64
2022/02/13 12:40:54;;;;;;;;;;;;;;;;;;5069464;28;19925;-65
2022/02/13 12:43:22;;;;;;;;;;;;;;;;;;5070102;28;20025;-64
2022/02/13 12:45:50;;;;;;;;;;;;;;;;;;5065534;28;20424;-65
2022/02/13 12:48:17;;;;;;;;;;;;;;;;;;5064628;28;19931;-64
2022/02/13 12:50:44;;;;;;;;;;;;;;;;;;5074411;28;19932;-64
2022/02/13 12:53:11;;;;;;;;;;;;;;;;;;5065918;28;19934;-64
2022/02/13 12:55:38;;;;;;;;;;;;;;;;;;5069438;28;20394;-64
2022/02/13 12:58:05;;;;;;;;;;;;;;;;;;5065766;28;19977;-64
2022/02/13 13:00:32;;;;;;;;;;;;;;;;;;5069109;28;19931;-65
2022/02/13 13:02:58;;;;;;;;;;;;;;;;;;5066833;28;19929;-64
2022/02/13 13:05:29;;;;;;;;;;;;;;;;;;5074051;28;19928;-64
2022/02/13 13:08:01;;;;;;;;;;;;;;;;;;5070744;28;20007;-65
2022/02/13 13:10:28;;;;;;;;;;;;;;;;;;5064443;28;19924;-65
2022/02/13 13:12:55;;;;;;;;;;;;;;;;;;5066230;28;19925;-65
2022/02/13 13:15:22;;;;;;;;;;;;;;;;;;5066965;28;19946;-65
2022/02/13 13:17:49;;;;;;;;;;;;;;;;;;5063111;28;19933;-65
2022/02/13 13:20:16;;;;;;;;;;;;;;;;;;5071025;28;19947;-65
2022/02/13 13:22:43;;;;;;;;;;;;;;;;;;5069925;28;20366;-65
2022/02/13 13:25:10;;;;;;;;;;;;;;;;;;5067758;28;19947;-64
2022/02/13 13:27:37;;;;;;;;;;;;;;;;;;5063044;28;20005;-63
2022/02/13 13:55:49;;;;;;;;;;;;;;;;;;5042772;28;19929;-70
2022/02/13 13:58:16;;;;;;;;;;;;;;;;;;5036759;28;19947;-70
2022/02/13 14:00:44;;;;;;;;;;;;;;;;;;5034939;28;20276;-70
2022/02/13 14:03:11;;;;;;;;;;;;;;;;;;5037004;28;19972;-71
2022/02/13 14:05:38;;;;;;;;;;;;;;;;;;5047273;23;19929;-67
2022/02/13 14:08:05;;;;;;;;;;;;;;;;;;5020552;28;19936;-63
2022/02/13 14:10:32;;;;;;;;;;;;;;;;;;5012010;28;20498;-63
2022/02/13 14:12:59;;;;;;;;;;;;;;;;;;5014178;28;19925;-64
2022/02/13 14:15:26;;;;;;;;;;;;;;;;;;5016102;28;19926;-64
2022/02/13 14:17:52;;;;;;;;;;;;;;;;;;5014772;28;19932;-64
2022/02/13 14:20:19;;;;;;;;;;;;;;;;;;5014299;28;19926;-63
2022/02/13 14:22:46;;;;;;;;;;;;;;;;;;5014903;28;20535;-64
2022/02/13 14:25:13;;;;;;;;;;;;;;;;;;5018297;28;19926;-64
2022/02/13 14:27:40;;;;;;;;;;;;;;;;;;5016085;28;19926;-65
2022/02/13 14:30:07;;;;;;;;;;;;;;;;;;5013581;28;19984;-64
2022/02/13 14:32:34;;;;;;;;;;;;;;;;;;5009127;28;19929;-65
2022/02/13 14:35:01;;;;;;;;;;;;;;;;;;5014792;28;19926;-63
2022/02/13 14:37:28;;;;;;;;;;;;;;;;;;5016247;28;19926;-64
2022/02/13 14:39:55;;;;;;;;;;;;;;;;;;5017043;28;19987;-65
2022/02/13 14:42:22;;;;;;;;;;;;;;;;;;5013994;28;19925;-63
2022/02/13 14:44:49;;;;;;;;;;;;;;;;;;5016048;28;19926;-66
2022/02/13 14:47:16;;;;;;;;;;;;;;;;;;5012742;28;20396;-65
2022/02/13 14:49:44;;;;;;;;;;;;;;;;;;5013966;28;20296;-65
2022/02/13 14:52:13;;;;;;;;;;;;;;;;;;5019715;28;19929;-66
2022/02/13 14:54:40;;;;;;;;;;;;;;;;;;5011675;28;19926;-66
2022/02/13 14:57:07;;;;;;;;;;;;;;;;;;5004273;28;20349;-65
2022/02/13 14:59:34;;;;;;;;;;;;;;;;;;5002183;28;19929;-64
2022/02/13 15:02:01;;;;;;;;;;;;;;;;;;5001876;28;19925;-65
2022/02/13 15:04:28;;;;;;;;;;;;;;;;;;4999496;28;19933;-65
2022/02/13 15:06:55;;;;;;;;;;;;;;;;;;4994651;28;19933;-64
2022/02/13 15:09:22;;;;;;;;;;;;;;;;;;4995959;28;20304;-64
2022/02/13 15:11:49;;;;;;;;;;;;;;;;;;4997592;28;20373;-64
2022/02/13 15:14:17;;;;;;;;;;;;;;;;;;4996318;28;19925;-64
2022/02/13 15:16:43;;;;;;;;;;;;;;;;;;5000726;28;20032;-64
2022/02/13 15:19:10;;;;;;;;;;;;;;;;;;5000379;28;19948;-65
2022/02/13 15:21:37;;;;;;;;;;;;;;;;;;4993433;28;19930;-64
2022/02/13 15:24:04;;;;;;;;;;;;;;;;;;4999980;28;19934;-64
2022/02/13 15:26:31;;;;;;;;;;;;;;;;;;4994474;28;19969;-64
2022/02/13 15:28:58;;;;;;;;;;;;;;;;;;4996001;28;20369;-65
2022/02/13 15:31:27;;;;;;;;;;;;;;;;;;4997062;28;19976;-64
2022/02/13 15:33:54;;;;;;;;;;;;;;;;;;4998996;28;19932;-65
2022/02/13 15:36:21;;;;;;;;;;;;;;;;;;5000933;28;19929;-63
2022/02/13 15:38:48;;;;;;;;;;;;;;;;;;5000101;28;19929;-65
2022/02/13 15:41:15;;;;;;;;;;;;;;;;;;4993922;28;19930;-67
2022/02/13 15:43:42;;;;;;;;;;;;;;;;;;5001906;28;19926;-64
2022/02/13 15:46:09;;;;;;;;;;;;;;;;;;4999381;28;20687;-65
2022/02/13 15:48:36;;;;;;;;;;;;;;;;;;5008152;28;20403;-66
2022/02/13 15:51:03;;;;;;;;;;;;;;;;;;4996261;28;19926;-64
2022/02/13 15:53:30;;;;;;;;;;;;;;;;;;4998734;28;19972;-64
2022/02/13 15:55:57;;;;;;;;;;;;;;;;;;4996480;28;19930;-64
2022/02/13 15:58:24;;;;;;;;;;;;;;;;;;5004799;28;19926;-64
2022/02/13 16:00:51;;;;;;;;;;;;;;;;;;4998001;28;19952;-62
2022/02/13 16:03:18;;;;;;;;;;;;;;;;;;5005890;28;20395;-66
2022/02/13 16:05:45;;;;;;;;;;;;;;;;;;5001089;28;19926;-65
2022/02/13 16:08:12;;;;;;;;;;;;;;;;;;4999097;28;19926;-64
2022/02/13 16:10:39;;;;;;;;;;;;;;;;;;4997475;28;19953;-64
2022/02/13 16:13:07;;;;;;;;;;;;;;;;;;4996548;28;20013;-65
2022/02/13 16:15:34;;;;;;;;;;;;;;;;;;5003427;28;20043;-64
2022/02/13 16:18:01;;;;;;;;;;;;;;;;;;4998010;28;19940;-64
2022/02/13 16:20:28;;;;;;;;;;;;;;;;;;5000429;28;19929;-65
2022/02/13 16:22:55;;;;;;;;;;;;;;;;;;5000670;28;20292;-65
2022/02/13 16:25:23;;;;;;;;;;;;;;;;;;4995594;28;19933;-65
2022/02/13 16:27:51;;;;;;;;;;;;;;;;;;4997301;28;19925;-65
2022/02/13 16:30:18;;;;;;;;;;;;;;;;;;4999014;28;19983;-65
2022/02/13 16:32:45;;;;;;;;;;;;;;;;;;5000210;28;19925;-65
2022/02/13 16:35:12;;;;;;;;;;;;;;;;;;4997357;28;19926;-65
2022/02/13 16:37:39;;;;;;;;;;;;;;;;;;4993750;28;19926;-65
2022/02/13 16:40:06;;;;;;;;;;;;;;;;;;5000914;28;19930;-65
2022/02/13 16:42:33;;;;;;;;;;;;;;;;;;4999378;28;19961;-66
2022/02/13 16:45:00;;;;;;;;;;;;;;;;;;4994854;28;20410;-65
2022/02/13 16:47:27;;;;;;;;;;;;;;;;;;4990939;28;19925;-65
2022/02/13 16:49:55;;;;;;;;;;;;;;;;;;4992775;28;19926;-64
2022/02/13 16:52:22;;;;;;;;;;;;;;;;;;4996049;28;19929;-64
2022/02/13 16:54:49;;;;;;;;;;;;;;;;;;5001174;28;19933;-65
2022/02/13 16:57:16;;;;;;;;;;;;;;;;;;5000103;28;20384;-65
2022/02/13 16:59:43;;;;;;;;;;;;;;;;;;5000068;28;19925;-64
2022/02/13 17:02:10;;;;;;;;;;;;;;;;;;4992701;28;19925;-65
2022/02/13 17:04:37;;;;;;;;;;;;;;;;;;5001060;28;19941;-65
2022/02/13 17:07:04;;;;;;;;;;;;;;;;;;4999588;28;19933;-65
2022/02/13 17:09:31;;;;;;;;;;;;;;;;;;5000666;28;19926;-67
2022/02/13 17:11:58;;;;;;;;;;;;;;;;;;4996314;28;19929;-67
2022/02/13 17:14:25;;;;;;;;;;;;;;;;;;4993264;28;20389;-67